Terminal Aerodrome Forecast
Issued by NWS Lake Charles, LA

Home | Current Version | Previous Version | Text Only | Print | Product List | Glossary On
Versions: 1 2 3 4 5 6 7 8 9 10 11 12 13 14 15
779
FTUS44 KLCH 181130
TAFARA
TAF
KARA 181130Z 1812/1912 20009KT P6SM SCT035
     FM181600 22015G24KT P6SM BKN030
     FM181900 24018G26KT P6SM VCSH OVC035
      TEMPO 1823/1824 4SM -SHRA
     FM190000 32016G24KT P6SM VCSH SCT030 OVC060
     FM190300 36014G22KT P6SM FEW060 SCT200=

USA.gov is the U.S. government's official web portal to all federal, state and local government web resources and services.